Time;durP1;ratioP1;P1;durP2;ratioP2;P2;SDS_P1;SDS_P2;PMS_P1;PMS_P2;Temp;Humidity;BMP_temperature;BMP_pressure;BME280_temperature;BME280_humidity;BME280_pressure;Samples;Min_cycle;Max_cycle;Signal;HPM_P1;HPM_P2
2022/06/10 00:00:25;;;;;;;24.83;23.47;;;14.40;83.00;;;;;;4962163;28;20486;-68
2022/06/10 00:02:52;;;;;;;24.47;23.17;;;14.40;82.80;;;;;;4964026;28;20479;-67
2022/06/10 00:05:31;;;;;;;24.20;22.80;;;14.40;82.70;;;;;;4974124;28;20494;-68
2022/06/10 00:07:58;;;;;;;23.77;22.47;;;14.30;82.90;;;;;;4965109;28;20493;-67
2022/06/10 00:10:27;;;;;;;22.87;21.67;;;14.30;82.70;;;;;;4963716;28;20459;-67
2022/06/10 00:12:55;;;;;;;24.10;22.60;;;14.30;82.70;;;;;;4967634;28;20558;-68
2022/06/10 00:15:22;;;;;;;22.73;21.53;;;14.30;82.60;;;;;;4967031;28;20580;-68
2022/06/10 00:17:49;;;;;;;23.30;22.10;;;14.30;82.60;;;;;;4967540;28;20558;-68
2022/06/10 00:20:19;;;;;;;22.87;21.67;;;14.20;82.90;;;;;;4967217;28;20459;-70
2022/06/10 00:22:47;;;;;;;24.20;22.80;;;14.20;83.50;;;;;;4961998;28;20556;-72
2022/06/10 00:25:15;;;;;;;23.33;21.60;;;14.20;83.70;;;;;;4960586;28;20892;-70
2022/06/10 00:27:41;;;;;;;22.43;21.23;;;14.20;83.70;;;;;;4966573;28;20842;-70
2022/06/10 00:30:10;;;;;;;23.33;22.13;;;14.10;83.90;;;;;;4962277;28;20562;-69
2022/06/10 00:32:38;;;;;;;23.03;21.63;;;14.10;84.20;;;;;;4965660;28;20459;-71
2022/06/10 00:35:07;;;;;;;22.70;21.27;;;13.90;84.70;;;;;;4967047;28;20502;-71
2022/06/10 00:37:34;;;;;;;23.83;22.40;;;13.80;85.30;;;;;;4959965;28;20557;-70
2022/06/10 00:40:02;;;;;;;22.47;21.30;;;13.80;85.30;;;;;;4965246;28;20529;-70
2022/06/10 00:42:29;;;;;;;22.50;21.30;;;13.70;85.50;;;;;;4962982;28;20455;-70
2022/06/10 00:44:56;;;;;;;22.80;21.50;;;13.70;85.70;;;;;;4964837;28;20638;-71
2022/06/10 00:47:29;;;;;;;22.20;21.10;;;13.70;85.60;;;;;;4966811;28;20479;-70
2022/06/10 00:50:01;;;;;;;22.67;21.33;;;13.70;85.50;;;;;;4955634;28;20459;-70
2022/06/10 00:52:33;;;;;;;23.10;21.80;;;13.80;85.50;;;;;;4963442;28;20573;-70
2022/06/10 00:55:05;;;;;;;24.17;22.77;;;13.80;85.50;;;;;;4964966;28;20465;-72
2022/06/10 00:57:38;;;;;;;22.47;21.37;;;13.80;85.30;;;;;;4963133;28;20891;-70
2022/06/10 01:00:09;;;;;;;22.77;21.47;;;13.80;85.30;;;;;;4966216;28;20490;-70
2022/06/10 01:02:37;;;;;;;21.77;20.67;;;13.80;85.30;;;;;;4960647;28;20543;-70
2022/06/10 01:05:06;;;;;;;21.37;20.13;;;13.80;85.20;;;;;;4967189;28;20991;-69
2022/06/10 01:07:38;;;;;;;22.10;20.80;;;13.60;85.60;;;;;;4967034;28;20554;-70
2022/06/10 01:10:12;;;;;;;22.50;21.40;;;13.60;85.70;;;;;;4967073;28;20490;-70
2022/06/10 01:12:54;;;;;;;22.10;20.90;;;13.60;85.70;;;;;;4971885;28;20464;-70
2022/06/10 01:15:30;;;;;;;22.27;20.93;;;13.60;85.90;;;;;;4963449;28;20470;-68
2022/06/10 01:18:13;;;;;;;22.77;21.57;;;13.50;86.20;;;;;;4959676;28;20765;-68
2022/06/10 01:20:52;;;;;;;22.20;21.00;;;13.50;86.20;;;;;;4963973;28;20554;-67
2022/06/10 01:23:45;;;;;;;22.37;21.17;;;13.50;86.10;;;;;;4971362;28;20945;-68
2022/06/10 01:30:20;;;;;;;22.00;20.80;;;13.50;85.90;;;;;;4959968;28;20837;-67
2022/06/10 01:33:01;;;;;;;22.20;21.00;;;13.50;86.00;;;;;;4882852;29;20456;-68
2022/06/10 01:35:37;;;;;;;23.00;21.67;;;13.50;86.00;;;;;;4885722;29;21079;-68
2022/06/10 01:38:13;;;;;;;22.20;21.00;;;13.50;85.90;;;;;;4946572;28;20588;-68
2022/06/10 01:40:50;;;;;;;23.13;21.73;;;13.50;85.80;;;;;;4959925;28;20788;-68
2022/06/10 01:43:28;;;;;;;23.03;21.67;;;13.40;86.10;;;;;;4975060;28;20582;-68
2022/06/10 01:46:03;;;;;;;23.33;21.80;;;13.40;86.40;;;;;;4957345;28;20826;-70
2022/06/10 01:48:35;;;;;;;23.43;22.03;;;13.30;86.60;;;;;;4965507;28;20553;-71
2022/06/10 01:51:10;;;;;;;23.43;22.13;;;13.20;86.90;;;;;;4957015;28;20515;-73
2022/06/10 01:53:42;;;;;;;21.90;20.70;;;13.20;86.90;;;;;;4971868;28;20806;-70
2022/06/10 01:56:18;;;;;;;22.80;21.40;;;13.20;87.10;;;;;;4960106;28;20483;-69
2022/06/10 01:58:48;;;;;;;22.30;20.90;;;13.10;87.20;;;;;;4967030;28;20890;-71
2022/06/10 02:01:20;;;;;;;21.57;20.40;;;13.00;87.50;;;;;;4964270;28;20463;-72
2022/06/10 02:03:53;;;;;;;21.80;20.60;;;13.00;87.50;;;;;;4963553;28;20506;-70
2022/06/10 02:06:25;;;;;;;21.70;20.37;;;13.00;87.80;;;;;;4964495;28;20569;-70
2022/06/10 02:08:55;;;;;;;21.50;20.40;;;12.90;87.90;;;;;;4967398;28;20485;-70
2022/06/10 02:11:26;;;;;;;21.93;20.57;;;12.90;88.00;;;;;;4963827;28;20570;-71
2022/06/10 02:13:58;;;;;;;21.47;20.27;;;12.90;88.00;;;;;;4961933;28;20468;-70
2022/06/10 02:16:28;;;;;;;22.30;20.87;;;12.90;88.10;;;;;;4959697;28;20563;-70
2022/06/10 02:19:03;;;;;;;21.63;20.10;;;12.90;88.10;;;;;;4963914;28;21023;-70
2022/06/10 02:21:37;;;;;;;22.57;21.07;;;12.90;88.10;;;;;;4960859;28;20529;-67
2022/06/10 02:24:09;;;;;;;22.37;20.87;;;12.90;88.00;;;;;;4968008;28;20550;-68
2022/06/10 02:26:38;;;;;;;21.27;19.97;;;13.00;87.90;;;;;;4968187;28;21077;-67
2022/06/10 02:29:10;;;;;;;22.10;20.77;;;12.90;87.60;;;;;;4959560;28;20519;-68
2022/06/10 02:31:41;;;;;;;21.10;19.90;;;12.90;87.90;;;;;;4973001;28;20826;-68
2022/06/10 02:34:10;;;;;;;22.23;20.83;;;12.90;87.60;;;;;;4960265;28;20566;-68
2022/06/10 02:36:44;;;;;;;23.80;22.20;;;12.90;87.50;;;;;;4967676;28;20558;-68
2022/06/10 02:39:19;;;;;;;23.07;21.90;;;12.80;87.80;;;;;;4974074;28;20481;-67
2022/06/10 02:41:51;;;;;;;21.07;19.90;;;12.80;87.80;;;;;;4962681;28;20458;-68
2022/06/10 02:44:25;;;;;;;22.17;20.70;;;12.60;88.10;;;;;;4971775;28;20462;-68
2022/06/10 02:47:00;;;;;;;21.93;20.50;;;12.50;88.60;;;;;;4967607;28;20570;-67
2022/06/10 02:49:28;;;;;;;21.90;20.60;;;12.60;88.30;;;;;;4976515;28;21078;-68
2022/06/10 02:51:55;;;;;;;21.70;20.30;;;12.70;88.10;;;;;;4966710;28;20557;-68
2022/06/10 02:54:27;;;;;;;22.10;20.63;;;12.60;88.50;;;;;;4966529;28;20549;-68
2022/06/10 02:56:55;;;;;;;21.23;20.10;;;12.60;88.60;;;;;;4967533;28;20468;-68
2022/06/10 03:02:23;;;;;;;23.03;21.63;;;12.70;88.50;;;;;;4965408;28;20461;-68
2022/06/10 03:05:05;;;;;;;22.20;20.90;;;12.70;88.20;;;;;;4967756;28;20820;-68
2022/06/10 03:07:44;;;;;;;22.70;21.40;;;12.70;88.20;;;;;;4973225;28;20485;-68
2022/06/10 03:10:23;;;;;;;23.30;21.90;;;12.70;88.20;;;;;;4974239;28;20487;-67
2022/06/10 03:13:09;;;;;;;22.90;21.53;;;12.70;88.30;;;;;;4978482;28;20541;-68
2022/06/10 03:15:50;;;;;;;24.90;23.10;;;12.80;88.20;;;;;;4980652;28;20944;-68
2022/06/10 03:18:27;;;;;;;24.53;22.93;;;12.80;87.60;;;;;;4970560;28;20573;-68
2022/06/10 03:20:59;;;;;;;22.30;21.10;;;12.80;87.40;;;;;;4962845;28;20553;-68
2022/06/10 03:23:37;;;;;;;24.50;22.93;;;12.80;87.60;;;;;;4980851;28;20455;-70
2022/06/10 03:26:08;;;;;;;24.60;23.20;;;12.70;87.90;;;;;;4980015;28;21354;-70
2022/06/10 03:28:43;;;;;;;25.90;24.27;;;12.70;88.00;;;;;;4967071;28;21059;-74
2022/06/10 03:31:15;;;;;;;22.17;20.87;;;12.70;88.10;;;;;;4975000;28;20498;-70
2022/06/10 03:33:48;;;;;;;26.27;24.57;;;12.70;88.40;;;;;;4977982;28;20555;-70
2022/06/10 03:36:18;;;;;;;22.43;21.03;;;12.80;88.30;;;;;;4980324;28;20487;-70
2022/06/10 03:38:47;;;;;;;22.37;21.10;;;12.80;88.20;;;;;;4971647;28;20886;-70
2022/06/10 03:41:21;;;;;;;25.80;24.20;;;12.90;88.00;;;;;;4972850;28;21067;-70
2022/06/10 03:43:50;;;;;;;25.40;24.03;;;13.00;87.60;;;;;;4973058;28;20513;-73
2022/06/10 03:46:19;;;;;;;27.07;25.30;;;13.10;88.00;;;;;;4967289;28;20597;-70
2022/06/10 03:48:48;;;;;;;25.20;23.70;;;13.20;87.70;;;;;;4971958;28;20488;-71
2022/06/10 03:51:18;;;;;;;25.87;24.20;;;13.30;87.00;;;;;;4962420;28;20566;-70
2022/06/10 03:53:46;;;;;;;23.30;21.90;;;13.50;86.30;;;;;;4982787;28;20466;-71
2022/06/10 03:56:13;;;;;;;24.17;22.77;;;13.80;84.80;;;;;;4974546;28;20848;-70
2022/06/10 03:58:41;;;;;;;24.33;22.90;;;14.10;83.50;;;;;;4969890;28;20466;-70
2022/06/10 04:01:11;;;;;;;25.60;24.00;;;14.50;82.10;;;;;;4973090;28;20537;-70
2022/06/10 04:03:38;;;;;;;25.83;24.00;;;14.70;80.90;;;;;;4969223;28;20547;-70
2022/06/10 04:06:05;;;;;;;26.93;25.17;;;14.80;80.40;;;;;;4969446;28;20617;-71
2022/06/10 04:08:33;;;;;;;25.37;23.90;;;14.80;80.30;;;;;;4969634;28;20549;-70
2022/06/10 04:11:00;;;;;;;26.83;25.13;;;14.70;80.30;;;;;;4972762;28;20605;-70
2022/06/10 04:13:27;;;;;;;28.40;26.63;;;14.60;80.40;;;;;;4967404;28;20545;-73
2022/06/10 04:15:54;;;;;;;27.30;25.50;;;14.70;80.50;;;;;;4973184;28;20999;-70
2022/06/10 04:18:21;;;;;;;27.30;25.67;;;14.70;80.40;;;;;;4968131;28;21000;-70
2022/06/10 04:20:48;;;;;;;26.63;24.93;;;14.70;80.20;;;;;;4962434;28;20499;-70
2022/06/10 04:23:15;;;;;;;28.50;26.90;;;14.80;80.30;;;;;;4974770;28;20881;-69
2022/06/10 04:25:45;;;;;;;25.80;24.40;;;14.80;80.10;;;;;;4968809;28;20562;-69
2022/06/10 04:28:12;;;;;;;24.83;23.23;;;14.80;80.10;;;;;;4968893;28;20554;-67
2022/06/10 04:30:42;;;;;;;25.90;24.40;;;14.90;79.80;;;;;;4966452;28;20483;-68
2022/06/10 04:33:10;;;;;;;26.43;24.80;;;14.90;79.90;;;;;;4973035;28;20557;-68
2022/06/10 04:35:38;;;;;;;26.10;24.70;;;14.90;79.70;;;;;;4967179;28;20479;-68
2022/06/10 04:38:07;;;;;;;27.03;25.30;;;14.90;79.60;;;;;;4965429;28;20687;-68
2022/06/10 04:40:36;;;;;;;25.50;23.87;;;14.90;79.60;;;;;;4964826;28;20849;-68
2022/06/10 04:43:07;;;;;;;27.13;25.43;;;15.00;79.60;;;;;;4972911;28;20708;-68
2022/06/10 04:45:37;;;;;;;26.53;24.93;;;15.00;79.30;;;;;;4958946;28;20497;-68
2022/06/10 04:48:04;;;;;;;26.20;24.50;;;15.00;79.40;;;;;;4968111;28;20586;-70
2022/06/10 04:50:31;;;;;;;29.13;27.30;;;15.10;79.40;;;;;;4966812;28;20969;-71
2022/06/10 04:52:58;;;;;;;27.93;26.07;;;15.20;79.40;;;;;;4967248;28;20496;-69
2022/06/10 04:55:27;;;;;;;25.00;23.60;;;15.30;79.10;;;;;;4966179;28;20558;-68
2022/06/10 04:57:54;;;;;;;25.20;23.80;;;15.30;79.10;;;;;;4964920;28;20462;-68
2022/06/10 05:00:27;;;;;;;26.37;24.77;;;15.40;78.70;;;;;;4956388;28;20471;-68
2022/06/10 05:02:55;;;;;;;26.43;24.73;;;15.50;78.50;;;;;;4958244;28;20463;-66
2022/06/10 05:05:22;;;;;;;26.03;24.53;;;15.50;78.40;;;;;;4967089;28;20463;-68
2022/06/10 05:07:49;;;;;;;26.10;24.70;;;15.50;78.70;;;;;;4968003;28;20558;-68
2022/06/10 05:10:18;;;;;;;28.67;26.90;;;15.50;78.70;;;;;;4967681;28;20582;-70
2022/06/10 05:12:45;;;;;;;28.03;26.33;;;15.60;78.60;;;;;;4970867;28;20558;-67
2022/06/10 05:15:13;;;;;;;26.80;25.10;;;15.70;78.30;;;;;;4969528;28;20845;-70
2022/06/10 05:17:42;;;;;;;26.87;25.37;;;15.70;78.00;;;;;;4968003;28;20597;-71
2022/06/10 05:20:13;;;;;;;28.20;26.50;;;15.80;78.10;;;;;;4966296;28;20538;-71
2022/06/10 05:22:39;;;;;;;27.37;25.77;;;15.80;77.90;;;;;;4958380;28;20567;-70
2022/06/10 05:25:07;;;;;;;27.03;25.37;;;16.00;77.60;;;;;;4982201;28;20565;-68
2022/06/10 05:27:34;;;;;;;27.50;25.70;;;16.00;77.10;;;;;;4963375;28;20471;-69
2022/06/10 05:30:01;;;;;;;26.67;24.83;;;16.10;77.00;;;;;;4965558;28;20611;-71
2022/06/10 05:32:28;;;;;;;28.30;26.50;;;16.20;76.90;;;;;;4967748;28;20563;-70
2022/06/10 05:34:57;;;;;;;29.20;27.43;;;16.20;76.70;;;;;;4970008;28;20519;-71
2022/06/10 05:37:26;;;;;;;27.57;25.70;;;16.20;76.30;;;;;;4963997;28;20585;-70
2022/06/10 05:39:55;;;;;;;26.07;24.47;;;16.20;76.00;;;;;;4965274;28;21151;-70
2022/06/10 05:42:22;;;;;;;26.90;25.20;;;16.30;75.70;;;;;;4967174;28;20463;-70
2022/06/10 05:44:51;;;;;;;29.63;27.83;;;16.20;75.80;;;;;;4966832;28;20553;-70
2022/06/10 05:47:21;;;;;;;26.60;24.90;;;16.30;76.10;;;;;;4970591;28;20899;-71
2022/06/10 05:49:55;;;;;;;30.80;28.97;;;16.50;75.10;;;;;;4962660;28;20479;-70
2022/06/10 05:52:26;;;;;;;26.27;24.77;;;16.60;74.50;;;;;;4969119;28;20474;-73
2022/06/10 05:54:55;;;;;;;27.87;25.87;;;16.60;74.50;;;;;;4974192;28;20916;-69
2022/06/10 05:57:31;;;;;;;27.67;25.80;;;16.60;74.40;;;;;;4967838;28;20475;-71
2022/06/10 05:59:59;;;;;;;27.70;26.10;;;16.70;74.50;;;;;;4967198;28;20901;-69
2022/06/10 06:02:27;;;;;;;30.70;28.73;;;16.60;74.90;;;;;;4966191;28;20562;-70
2022/06/10 06:04:54;;;;;;;30.17;28.27;;;16.70;75.00;;;;;;4964368;28;20482;-69
2022/06/10 06:07:25;;;;;;;27.70;25.80;;;16.90;74.50;;;;;;4963892;28;20567;-70
2022/06/10 06:09:53;;;;;;;29.10;27.20;;;17.00;74.10;;;;;;4970487;28;20568;-69
2022/06/10 06:12:20;;;;;;;29.80;27.63;;;17.10;73.90;;;;;;4969750;28;20501;-71
2022/06/10 06:14:47;;;;;;;29.13;27.30;;;17.30;73.60;;;;;;4962153;28;20466;-70
2022/06/10 06:17:15;;;;;;;29.37;27.37;;;17.30;72.80;;;;;;4967976;28;20483;-71
2022/06/10 06:19:43;;;;;;;29.10;27.30;;;17.40;72.80;;;;;;4974493;28;20494;-74
2022/06/10 06:22:10;;;;;;;27.50;25.90;;;17.40;72.30;;;;;;4962894;28;20482;-71
2022/06/10 06:24:39;;;;;;;28.30;26.10;;;17.50;72.00;;;;;;4974441;28;20565;-72
2022/06/10 06:27:07;;;;;;;28.90;27.10;;;17.40;71.80;;;;;;4968362;28;20602;-71
2022/06/10 06:29:34;;;;;;;28.93;27.00;;;17.50;71.70;;;;;;4969896;28;21009;-73
2022/06/10 06:32:01;;;;;;;28.03;26.07;;;17.50;71.60;;;;;;4958214;28;20463;-71
2022/06/10 06:34:28;;;;;;;28.30;26.70;;;17.60;71.60;;;;;;4975878;28;20825;-70
2022/06/10 06:36:59;;;;;;;29.77;27.83;;;17.70;71.20;;;;;;4961775;28;20484;-71
2022/06/10 06:39:27;;;;;;;28.20;26.43;;;17.80;71.00;;;;;;4961155;28;20535;-75
2022/06/10 06:41:56;;;;;;;28.90;26.90;;;17.90;70.20;;;;;;4965990;28;20561;-73
2022/06/10 06:44:23;;;;;;;30.27;28.17;;;18.00;70.40;;;;;;4966704;28;20885;-72
2022/06/10 06:46:53;;;;;;;28.17;26.33;;;18.20;69.90;;;;;;4965526;28;20575;-75
2022/06/10 06:49:23;;;;;;;30.40;28.37;;;18.30;69.50;;;;;;4964188;28;20565;-70
2022/06/10 06:51:50;;;;;;;31.30;28.90;;;18.30;69.60;;;;;;4973300;28;21043;-71
2022/06/10 06:54:19;;;;;;;28.43;26.17;;;18.50;69.00;;;;;;4967931;28;20486;-71
2022/06/10 06:56:47;;;;;;;27.80;26.00;;;18.50;68.60;;;;;;4968522;28;20493;-71
2022/06/10 06:59:16;;;;;;;28.10;26.20;;;18.60;68.30;;;;;;4967826;28;20457;-71
2022/06/10 07:01:43;;;;;;;28.70;27.07;;;18.70;67.60;;;;;;4974335;28;20494;-71
2022/06/10 07:04:10;;;;;;;28.57;26.40;;;18.80;66.90;;;;;;4972763;28;20468;-71
2022/06/10 07:06:38;;;;;;;28.30;26.40;;;18.80;66.80;;;;;;4967972;28;20869;-72
2022/06/10 07:09:06;;;;;;;31.07;28.60;;;18.70;66.80;;;;;;4965034;28;20961;-72
2022/06/10 07:11:35;;;;;;;28.50;26.80;;;18.60;67.50;;;;;;4975675;28;20454;-71
2022/06/10 07:14:02;;;;;;;28.87;26.80;;;18.60;67.40;;;;;;4971043;28;20992;-70
2022/06/10 07:16:30;;;;;;;31.00;28.60;;;18.60;67.10;;;;;;4975352;28;20497;-69
2022/06/10 07:19:09;;;;;;;28.83;27.00;;;18.70;67.60;;;;;;4978936;28;20556;-70
2022/06/10 07:21:37;;;;;;;30.63;28.33;;;18.90;67.40;;;;;;4968839;28;20465;-70
2022/06/10 07:24:06;;;;;;;29.40;27.30;;;19.00;66.80;;;;;;4976575;28;20955;-70
2022/06/10 07:26:34;;;;;;;29.57;27.47;;;18.90;67.00;;;;;;4972750;28;20485;-71
2022/06/10 07:29:05;;;;;;;28.77;26.97;;;19.00;67.80;;;;;;4974883;28;20549;-70
2022/06/10 07:31:36;;;;;;;29.30;27.40;;;19.00;67.40;;;;;;4977695;28;20467;-71
2022/06/10 07:34:06;;;;;;;28.83;27.00;;;18.80;68.20;;;;;;4956893;28;20497;-70
2022/06/10 07:36:34;;;;;;;28.67;26.67;;;18.90;68.50;;;;;;4966037;28;20574;-70
2022/06/10 07:39:03;;;;;;;30.53;28.17;;;18.80;68.90;;;;;;4976087;28;20940;-70
2022/06/10 07:44:24;;;;;;;29.90;27.90;;;19.20;67.80;;;;;;4968221;28;20574;-70
2022/06/10 07:46:59;;;;;;;28.53;26.60;;;19.20;68.00;;;;;;4973000;28;20529;-70
2022/06/10 07:49:28;;;;;;;29.83;27.50;;;19.20;67.70;;;;;;4972402;28;20479;-70
2022/06/10 07:51:55;;;;;;;31.40;28.83;;;19.40;67.60;;;;;;4966089;28;20525;-70
2022/06/10 07:54:23;;;;;;;28.90;27.10;;;19.50;66.80;;;;;;4978470;28;20463;-69
2022/06/10 07:56:50;;;;;;;30.00;27.80;;;19.60;66.50;;;;;;4966691;28;20483;-69
2022/06/10 07:59:17;;;;;;;30.13;27.93;;;19.60;66.60;;;;;;4965581;28;20460;-69
2022/06/10 08:01:44;;;;;;;29.33;27.07;;;19.50;67.00;;;;;;4976471;28;20506;-69
2022/06/10 08:04:12;;;;;;;28.30;26.40;;;19.50;67.30;;;;;;4972126;28;20460;-73
2022/06/10 08:06:43;;;;;;;31.53;29.43;;;19.60;67.40;;;;;;4965587;28;21061;-72
2022/06/10 08:09:11;;;;;;;28.90;27.00;;;19.70;67.20;;;;;;4974377;28;20562;-72
2022/06/10 08:11:38;;;;;;;31.50;29.60;;;19.90;67.00;;;;;;4967596;28;20493;-71
2022/06/10 08:14:06;;;;;;;29.80;27.63;;;20.00;66.50;;;;;;4975811;28;20473;-71
2022/06/10 08:16:35;;;;;;;31.17;29.07;;;20.20;65.30;;;;;;4974278;28;20490;-71
2022/06/10 08:19:05;;;;;;;30.07;28.30;;;20.20;65.20;;;;;;4963791;28;20554;-78
2022/06/10 08:24:19;;;;;;;29.70;27.80;;;20.10;65.20;;;;;;4975377;28;20519;-69
2022/06/10 08:26:46;;;;;;;29.90;27.40;;;20.10;64.80;;;;;;4976415;28;20533;-69
2022/06/10 08:29:13;;;;;;;31.37;29.27;;;20.00;64.60;;;;;;4971167;28;20472;-69
2022/06/10 08:31:40;;;;;;;29.03;27.20;;;20.10;65.10;;;;;;4969977;28;20499;-68
2022/06/10 08:34:07;;;;;;;27.80;26.10;;;20.30;64.80;;;;;;4969074;28;20497;-68
2022/06/10 08:36:37;;;;;;;27.47;25.77;;;20.40;64.50;;;;;;4963188;28;20526;-68
2022/06/10 08:39:05;;;;;;;28.30;26.40;;;20.70;63.20;;;;;;4973988;28;21017;-68
2022/06/10 08:41:41;;;;;;;27.43;25.53;;;20.70;62.40;;;;;;4970098;28;20554;-69
2022/06/10 08:44:15;;;;;;;27.00;25.03;;;20.70;61.30;;;;;;4968146;28;20542;-68
2022/06/10 08:47:02;;;;;;;27.20;25.50;;;20.30;62.40;;;;;;4965850;28;20837;-69
2022/06/10 08:49:51;;;;;;;28.53;26.53;;;20.30;62.50;;;;;;4965124;28;20563;-69
2022/06/10 08:52:30;;;;;;;27.77;25.70;;;20.40;61.00;;;;;;4964523;28;20500;-73
2022/06/10 08:55:05;;;;;;;26.93;25.10;;;20.60;59.00;;;;;;4966515;28;20467;-69
2022/06/10 08:57:36;;;;;;;27.43;25.20;;;20.70;59.10;;;;;;4964969;28;20484;-69
2022/06/10 09:00:10;;;;;;;28.73;26.93;;;20.80;58.70;;;;;;4971328;28;20583;-69
2022/06/10 09:02:42;;;;;;;28.47;26.77;;;20.90;58.50;;;;;;4972385;28;20470;-69
2022/06/10 09:05:16;;;;;;;27.30;25.40;;;21.00;58.00;;;;;;4970496;28;21028;-68
2022/06/10 09:07:49;;;;;;;26.77;25.00;;;20.90;57.60;;;;;;4967653;28;20599;-68
2022/06/10 09:10:22;;;;;;;27.73;25.70;;;21.00;57.70;;;;;;4967312;28;21294;-68
2022/06/10 09:13:13;;;;;;;27.93;26.03;;;21.00;57.70;;;;;;4965655;28;20472;-68
2022/06/10 09:15:46;;;;;;;28.30;26.30;;;21.10;57.60;;;;;;4963552;28;20951;-70
2022/06/10 09:18:19;;;;;;;28.73;26.70;;;21.10;58.20;;;;;;4964853;28;20470;-70
2022/06/10 09:20:53;;;;;;;27.73;26.00;;;21.20;58.10;;;;;;4963736;28;20464;-70
2022/06/10 09:23:30;;;;;;;27.37;24.97;;;21.30;58.10;;;;;;4969518;28;20550;-70
2022/06/10 09:25:59;;;;;;;28.00;26.10;;;21.40;57.80;;;;;;4952799;28;20606;-71
2022/06/10 09:28:26;;;;;;;29.00;27.30;;;21.50;57.70;;;;;;4961014;28;20469;-70
2022/06/10 09:30:58;;;;;;;28.30;26.40;;;21.60;57.80;;;;;;4963913;28;20593;-70
2022/06/10 09:33:37;;;;;;;29.50;27.37;;;21.70;57.50;;;;;;4965025;28;20469;-70
2022/06/10 09:36:09;;;;;;;28.10;26.30;;;21.90;57.40;;;;;;4957287;28;20469;-71
2022/06/10 09:38:45;;;;;;;27.93;26.10;;;22.00;57.00;;;;;;4969473;28;21059;-70
2022/06/10 09:41:22;;;;;;;28.97;27.10;;;22.10;55.80;;;;;;4966056;28;20797;-70
2022/06/10 09:44:00;;;;;;;28.57;26.87;;;22.10;55.60;;;;;;4967805;28;20467;-71
2022/06/10 09:46:45;;;;;;;29.50;27.50;;;22.20;55.90;;;;;;4968124;28;20482;-70
2022/06/10 09:49:28;;;;;;;27.67;25.87;;;22.30;56.00;;;;;;4963791;28;20479;-70
2022/06/10 09:52:03;;;;;;;28.37;26.27;;;22.40;56.00;;;;;;4965841;28;20949;-71
2022/06/10 09:54:44;;;;;;;27.97;26.03;;;22.50;56.10;;;;;;4967888;28;20554;-70
2022/06/10 09:57:38;;;;;;;28.13;26.33;;;22.60;56.20;;;;;;4968167;28;20518;-70
2022/06/10 10:00:15;;;;;;;29.37;27.17;;;22.70;55.90;;;;;;4959176;28;20532;-71
2022/06/10 10:02:51;;;;;;;29.90;28.07;;;22.70;55.50;;;;;;4964404;28;20473;-70
2022/06/10 10:05:36;;;;;;;29.83;27.90;;;22.90;55.40;;;;;;4966661;28;20517;-71
2022/06/10 10:08:17;;;;;;;30.07;27.93;;;23.10;54.30;;;;;;4962981;28;20555;-72
2022/06/10 10:10:50;;;;;;;30.97;28.73;;;23.30;53.00;;;;;;4961644;28;20477;-71
2022/06/10 10:13:50;;;;;;;30.10;28.00;;;23.20;53.30;;;;;;4964660;28;20544;-71
2022/06/10 10:16:28;;;;;;;30.50;28.33;;;23.30;53.70;;;;;;4952532;28;20588;-71
2022/06/10 10:19:09;;;;;;;27.83;25.93;;;23.40;53.50;;;;;;4964761;28;21024;-71
2022/06/10 10:21:45;;;;;;;28.77;26.97;;;23.50;53.50;;;;;;4963233;28;20575;-71
2022/06/10 10:24:18;;;;;;;28.17;26.37;;;23.70;53.70;;;;;;4965558;28;20544;-71
2022/06/10 10:26:49;;;;;;;28.23;26.13;;;23.90;53.40;;;;;;4967062;28;20631;-70
2022/06/10 10:29:19;;;;;;;30.93;29.03;;;24.00;52.60;;;;;;4961565;28;20521;-70
2022/06/10 10:31:50;;;;;;;29.47;27.57;;;24.30;52.00;;;;;;4970734;28;20579;-71
2022/06/10 10:34:21;;;;;;;27.63;26.03;;;24.40;51.00;;;;;;4966028;28;20551;-72
2022/06/10 10:36:51;;;;;;;29.27;27.50;;;24.60;50.40;;;;;;4968283;28;20483;-71
2022/06/10 10:39:32;;;;;;;29.93;28.17;;;24.60;49.40;;;;;;4957413;28;20565;-71
2022/06/10 10:42:04;;;;;;;29.63;27.47;;;24.70;49.60;;;;;;4964869;28;20487;-71
2022/06/10 10:44:39;;;;;;;29.77;27.80;;;24.80;48.90;;;;;;4966282;28;20463;-73
2022/06/10 10:47:21;;;;;;;29.90;27.97;;;24.80;48.60;;;;;;4975705;28;20483;-73
2022/06/10 10:49:50;;;;;;;33.10;31.17;;;24.80;48.60;;;;;;4961343;28;20906;-71
2022/06/10 10:52:21;;;;;;;28.07;26.47;;;24.60;48.80;;;;;;4971158;28;20482;-72
2022/06/10 10:54:52;;;;;;;28.27;26.50;;;24.70;48.70;;;;;;4967786;28;20587;-70
2022/06/10 10:57:29;;;;;;;28.67;26.77;;;24.80;48.60;;;;;;4975152;28;20491;-70
2022/06/10 11:00:08;;;;;;;29.73;27.63;;;24.90;48.20;;;;;;4971026;28;20473;-76
2022/06/10 11:02:39;;;;;;;29.87;28.00;;;24.80;48.30;;;;;;4978694;28;20549;-71
2022/06/10 11:05:31;;;;;;;29.77;27.90;;;24.90;49.20;;;;;;4976749;28;20537;-70
2022/06/10 11:08:21;;;;;;;28.30;26.60;;;24.50;50.00;;;;;;4963493;28;20471;-71
2022/06/10 11:11:27;;;;;;;29.50;27.60;;;24.30;50.20;;;;;;4964132;28;20599;-73
2022/06/10 11:13:58;;;;;;;28.50;26.70;;;24.00;50.50;;;;;;4970832;28;20459;-70
2022/06/10 11:16:57;;;;;;;28.40;26.40;;;24.00;51.30;;;;;;4967827;28;20488;-71
2022/06/10 11:19:27;;;;;;;28.40;26.60;;;24.10;50.90;;;;;;4966919;28;20493;-71
2022/06/10 11:22:11;;;;;;;27.60;26.00;;;24.20;50.70;;;;;;4980042;28;21236;-74
2022/06/10 11:24:40;;;;;;;28.03;26.40;;;24.40;50.20;;;;;;4971618;28;20549;-72
2022/06/10 11:27:23;;;;;;;28.27;26.43;;;24.60;50.10;;;;;;4965376;28;20561;-73
2022/06/10 11:30:01;;;;;;;32.07;30.07;;;24.90;49.30;;;;;;4970236;28;20545;-73
2022/06/10 11:32:33;;;;;;;30.97;28.77;;;25.30;49.60;;;;;;4973152;28;20489;-73
2022/06/10 11:35:02;;;;;;;30.20;28.43;;;25.60;49.20;;;;;;4969773;28;20465;-72
2022/06/10 11:37:46;;;;;;;29.90;27.93;;;25.90;47.90;;;;;;4975718;28;20681;-73
2022/06/10 11:40:16;;;;;;;28.63;26.80;;;26.20;47.00;;;;;;4969651;28;20946;-73
2022/06/10 11:42:51;;;;;;;30.00;27.80;;;26.50;46.70;;;;;;4974290;28;20499;-74
2022/06/10 11:45:23;;;;;;;28.53;26.60;;;26.70;46.70;;;;;;4970659;28;21287;-76
2022/06/10 11:47:56;;;;;;;30.00;27.90;;;26.90;45.70;;;;;;4966560;28;20546;-75
2022/06/10 11:50:30;;;;;;;28.70;26.37;;;27.00;43.90;;;;;;4965281;28;20553;-77
2022/06/10 11:53:03;;;;;;;27.93;26.23;;;27.00;44.50;;;;;;4967942;28;20593;-73
2022/06/10 11:55:35;;;;;;;28.90;27.07;;;26.60;44.70;;;;;;4971240;28;20462;-73
2022/06/10 12:01:03;;;;;;;28.20;26.40;;;26.50;44.60;;;;;;4969200;28;20460;-73
2022/06/10 12:03:37;;;;;;;29.90;27.93;;;26.20;44.90;;;;;;4973367;28;20554;-71
2022/06/10 12:06:08;;;;;;;32.03;29.97;;;26.30;45.50;;;;;;4963126;28;20580;-76
2022/06/10 12:08:50;;;;;;;29.10;27.30;;;26.40;46.10;;;;;;4963624;28;21079;-71
2022/06/10 12:11:37;;;;;;;27.87;25.97;;;26.50;45.70;;;;;;4971201;28;20584;-73
2022/06/10 12:14:14;;;;;;;29.63;27.60;;;26.50;45.70;;;;;;4961950;28;20568;-74
2022/06/10 12:16:46;;;;;;;28.20;26.50;;;26.60;45.80;;;;;;4969753;28;20599;-75
2022/06/10 12:19:19;;;;;;;28.80;26.70;;;26.60;45.20;;;;;;4966936;28;20513;-74
2022/06/10 12:21:46;;;;;;;30.37;28.37;;;26.70;45.00;;;;;;4972759;28;20458;-76
2022/06/10 12:24:16;;;;;;;28.07;26.37;;;26.70;44.70;;;;;;4970773;28;20464;-75
2022/06/10 12:26:49;;;;;;;30.00;28.07;;;26.90;44.70;;;;;;4970795;28;20477;-75
2022/06/10 12:29:19;;;;;;;29.43;27.40;;;26.90;44.10;;;;;;4960843;28;20982;-71
2022/06/10 12:31:58;;;;;;;28.37;26.50;;;27.00;44.40;;;;;;4967283;28;20497;-71
2022/06/10 12:34:42;;;;;;;31.43;29.33;;;26.90;44.30;;;;;;4964262;28;20471;-70
2022/06/10 12:37:28;;;;;;;29.60;27.80;;;26.60;44.30;;;;;;4975043;28;20560;-71
2022/06/10 12:40:00;;;;;;;28.57;26.57;;;26.60;45.20;;;;;;4970074;28;21021;-71
2022/06/10 12:42:36;;;;;;;28.83;26.93;;;26.60;45.00;;;;;;4964545;28;20558;-71
2022/06/10 12:45:12;;;;;;;29.80;28.00;;;26.70;44.10;;;;;;4978272;28;20466;-72
2022/06/10 12:47:42;;;;;;;29.67;27.77;;;26.90;44.40;;;;;;4962592;28;21371;-72
2022/06/10 12:50:19;;;;;;;30.40;28.50;;;27.00;43.80;;;;;;4966611;28;20541;-72
2022/06/10 12:53:01;;;;;;;29.30;27.60;;;27.00;43.70;;;;;;4966361;28;21276;-72
2022/06/10 12:55:37;;;;;;;30.37;27.37;;;27.10;44.60;;;;;;4975251;28;20471;-72
2022/06/10 12:58:05;;;;;;;28.80;27.00;;;27.40;44.30;;;;;;4961995;28;21251;-71
2022/06/10 13:00:42;;;;;;;28.13;26.33;;;27.50;42.50;;;;;;4971522;28;20474;-70
2022/06/10 13:03:36;;;;;;;30.10;28.20;;;27.60;43.20;;;;;;4970050;28;20545;-71
2022/06/10 13:06:33;;;;;;;28.47;26.70;;;27.90;42.30;;;;;;4965243;28;20618;-71
2022/06/10 13:09:21;;;;;;;27.97;26.27;;;28.00;42.00;;;;;;4967548;28;20628;-72